createdAt,value
2018-12-16T00:02:41.226Z,100.77
2018-12-16T00:05:48.034Z,97.47
2018-12-16T00:08:52.772Z,109.80
2018-12-16T00:11:57.491Z,99.47
2018-12-16T00:15:02.214Z,94.90
2018-12-16T00:18:07.471Z,86.37
2018-12-16T00:21:12.283Z,77.67
2018-12-16T00:24:17.486Z,88.03
2018-12-16T00:27:22.280Z,83.03
2018-12-16T00:30:27.022Z,89.67
2018-12-16T00:33:31.777Z,84.80
2018-12-16T00:36:36.590Z,89.20
2018-12-16T00:39:41.318Z,115.77
2018-12-16T00:42:46.070Z,91.03
2018-12-16T00:45:50.831Z,81.93
2018-12-16T00:48:55.550Z,85.07
2018-12-16T00:52:00.288Z,94.93
2018-12-16T00:55:05.498Z,88.50
2018-12-16T00:58:10.231Z,99.27
2018-12-16T01:01:14.999Z,89.23
2018-12-16T01:04:19.806Z,97.77
2018-12-16T01:07:24.545Z,85.30
2018-12-16T01:10:29.299Z,90.23
2018-12-16T01:13:34.045Z,87.60
2018-12-16T01:16:38.787Z,87.27
2018-12-16T01:19:43.522Z,79.97
2018-12-16T01:22:48.234Z,100.33
2018-12-16T01:25:53.026Z,125.40
2018-12-16T01:28:57.818Z,113.83
2018-12-16T01:32:02.580Z,86.80
2018-12-16T01:35:07.512Z,73.43
2018-12-16T01:38:12.234Z,64.47
2018-12-16T01:41:16.954Z,66.20
2018-12-16T01:44:21.678Z,80.30
2018-12-16T01:47:26.413Z,72.33
2018-12-16T01:50:31.129Z,108.67
2018-12-16T01:53:35.859Z,75.03
2018-12-16T01:56:40.593Z,78.23
2018-12-16T01:59:45.310Z,82.63
2018-12-16T02:02:50.065Z,94.97
2018-12-16T02:05:54.828Z,92.43
2018-12-16T02:08:59.557Z,94.10
2018-12-16T02:12:04.321Z,88.70
2018-12-16T02:15:09.379Z,78.00
2018-12-16T02:18:15.154Z,75.47
2018-12-16T02:21:19.894Z,74.10
2018-12-16T02:24:24.658Z,68.37
2018-12-16T02:27:29.370Z,73.93
2018-12-16T02:30:34.151Z,84.83
2018-12-16T02:33:38.889Z,88.10
2018-12-16T02:36:43.625Z,79.53
2018-12-16T02:39:48.382Z,79.57
2018-12-16T02:42:53.076Z,86.57
2018-12-16T02:45:57.873Z,93.43
2018-12-16T02:49:02.591Z,92.73
2018-12-16T02:52:07.348Z,102.87
2018-12-16T02:55:12.129Z,92.57
2018-12-16T02:58:16.947Z,99.10
2018-12-16T03:01:21.665Z,94.67
2018-12-16T03:04:27.659Z,88.27
2018-12-16T03:07:32.403Z,88.83
2018-12-16T03:10:37.215Z,84.97
2018-12-16T03:13:41.925Z,87.77
2018-12-16T03:16:46.668Z,79.07
2018-12-16T03:19:51.409Z,84.93
2018-12-16T03:22:56.107Z,78.93
2018-12-16T03:26:00.838Z,72.70
2018-12-16T03:29:06.656Z,79.60
2018-12-16T03:32:11.427Z,78.83
2018-12-16T03:35:16.171Z,94.50
2018-12-16T03:38:20.922Z,132.43
2018-12-16T03:41:25.698Z,90.83
2018-12-16T03:44:30.428Z,139.53
2018-12-16T03:47:35.210Z,106.03
2018-12-16T03:50:39.941Z,94.83
2018-12-16T03:53:44.697Z,89.67
2018-12-16T03:56:49.437Z,92.97
2018-12-16T03:59:54.188Z,85.30
2018-12-16T04:02:58.899Z,84.33
2018-12-16T04:06:03.666Z,81.43
2018-12-16T04:09:08.444Z,85.33
2018-12-16T04:12:13.189Z,82.97
2018-12-16T04:15:18.207Z,86.17
2018-12-16T04:18:22.926Z,93.30
2018-12-16T04:21:27.636Z,90.57
2018-12-16T04:24:32.350Z,79.57
2018-12-16T04:27:37.093Z,82.13
2018-12-16T04:30:41.853Z,80.13
2018-12-16T04:33:46.619Z,72.50
2018-12-16T04:36:51.398Z,77.67
2018-12-16T04:39:56.135Z,72.37
2018-12-16T04:43:00.873Z,66.43
2018-12-16T04:46:05.619Z,56.23
2018-12-16T04:49:10.389Z,54.07
2018-12-16T04:52:15.128Z,51.17
2018-12-16T04:55:19.863Z,60.03
2018-12-16T04:58:24.583Z,53.23
2018-12-16T05:01:29.318Z,65.37
2018-12-16T05:04:34.031Z,70.43
2018-12-16T05:07:38.787Z,70.40
2018-12-16T05:10:43.493Z,76.83
2018-12-16T05:13:48.231Z,70.20
2018-12-16T05:16:52.974Z,60.13
2018-12-16T05:19:57.703Z,75.90
2018-12-16T05:23:02.448Z,70.93
2018-12-16T05:26:09.250Z,67.30
2018-12-16T05:29:13.985Z,76.13
2018-12-16T05:32:18.714Z,69.10
2018-12-16T05:35:23.429Z,65.97
2018-12-16T05:38:28.178Z,76.27
2018-12-16T05:41:33.006Z,73.87
2018-12-16T05:44:37.758Z,81.03
2018-12-16T05:47:42.470Z,94.93
2018-12-16T05:50:47.181Z,92.67
2018-12-16T05:53:51.941Z,96.93
2018-12-16T05:56:56.726Z,86.90
2018-12-16T06:00:01.496Z,115.07
2018-12-16T06:03:07.499Z,126.70
2018-12-16T06:06:12.234Z,92.40
2018-12-16T06:09:16.971Z,79.43
2018-12-16T06:12:21.689Z,71.47
2018-12-16T06:15:26.409Z,73.93
2018-12-16T06:18:31.170Z,83.60
2018-12-16T06:21:35.934Z,80.90
2018-12-16T06:24:40.680Z,92.50
2018-12-16T06:27:45.430Z,77.33
2018-12-16T06:30:50.498Z,84.00
2018-12-16T06:33:55.236Z,89.03
2018-12-16T06:36:59.941Z,86.80
2018-12-16T06:40:05.216Z,88.83
2018-12-16T06:43:09.901Z,84.03
2018-12-16T06:46:14.699Z,82.57
2018-12-16T06:49:19.422Z,91.80
2018-12-16T06:52:24.288Z,103.90
2018-12-16T06:55:29.068Z,108.00
2018-12-16T06:58:33.789Z,107.47
2018-12-16T07:01:38.513Z,103.03
2018-12-16T07:04:43.271Z,114.93
2018-12-16T07:07:48.036Z,105.57
2018-12-16T07:10:52.774Z,93.40
2018-12-16T07:13:57.535Z,92.73
2018-12-16T07:17:02.437Z,111.37
2018-12-16T07:20:07.789Z,108.20
2018-12-16T07:23:12.642Z,115.87
2018-12-16T07:29:32.912Z,103.00
2018-12-16T07:32:37.822Z,112.53
2018-12-16T07:35:42.615Z,111.37
2018-12-16T07:38:47.383Z,128.90
2018-12-16T07:41:52.185Z,106.60
2018-12-16T07:44:56.947Z,117.93
2018-12-16T07:48:01.685Z,119.63
2018-12-16T07:51:06.574Z,109.30
2018-12-16T07:54:16.097Z,118.17
2018-12-16T07:57:18.190Z,122.53
2018-12-16T08:00:22.999Z,130.83
2018-12-16T08:03:27.831Z,134.90
2018-12-16T08:06:32.562Z,132.40
2018-12-16T08:09:37.574Z,133.30
2018-12-16T08:12:42.309Z,128.07
2018-12-16T08:15:47.108Z,119.20
2018-12-16T08:18:51.861Z,129.40
2018-12-16T08:21:56.652Z,123.63
2018-12-16T08:25:01.434Z,132.70
2018-12-16T08:28:06.304Z,147.13
2018-12-16T08:31:11.236Z,129.90
2018-12-16T08:34:16.698Z,137.53
2018-12-16T08:37:21.493Z,118.73
2018-12-16T08:40:26.259Z,148.03
2018-12-16T08:43:31.003Z,134.93
2018-12-16T08:46:35.831Z,115.47
2018-12-16T08:49:40.587Z,105.47
2018-12-16T08:52:45.395Z,120.77
2018-12-16T08:55:50.960Z,140.37
2018-12-16T08:58:55.884Z,137.07
2018-12-16T09:02:00.619Z,139.70
2018-12-16T09:05:06.513Z,144.63
2018-12-16T09:08:12.311Z,110.33
2018-12-16T09:11:17.067Z,120.73
2018-12-16T09:14:21.817Z,120.53
2018-12-16T09:17:26.576Z,123.10
2018-12-16T09:20:31.307Z,111.80
2018-12-16T09:23:36.135Z,116.87
2018-12-16T09:26:40.887Z,118.03
2018-12-16T09:29:45.722Z,119.43
2018-12-16T09:32:50.513Z,127.60
2018-12-16T09:35:55.246Z,128.33
2018-12-16T09:39:00.006Z,123.33
2018-12-16T09:42:04.879Z,131.10
2018-12-16T09:45:09.705Z,134.03
2018-12-16T09:48:14.556Z,131.23
2018-12-16T09:51:19.470Z,133.97
2018-12-16T09:54:24.313Z,124.20
2018-12-16T09:57:29.046Z,138.53
2018-12-16T10:00:33.836Z,138.87
2018-12-16T10:03:38.592Z,132.03
2018-12-16T10:06:43.387Z,141.23
2018-12-16T10:09:48.160Z,173.30
2018-12-16T10:12:54.075Z,209.77
2018-12-16T10:15:58.979Z,141.27
2018-12-16T10:19:03.901Z,149.20
2018-12-16T10:22:08.669Z,137.93
2018-12-16T10:25:13.417Z,136.77
2018-12-16T10:28:18.191Z,148.40
2018-12-16T10:31:22.950Z,125.57
2018-12-16T10:34:27.691Z,137.90
2018-12-16T10:37:32.437Z,139.03
2018-12-16T10:40:38.335Z,148.73
2018-12-16T10:43:43.192Z,146.70
2018-12-16T10:46:47.958Z,148.13
2018-12-16T10:49:53.915Z,143.17
2018-12-16T10:52:58.692Z,175.70
2018-12-16T10:56:03.499Z,152.00
2018-12-16T10:59:08.289Z,157.20
2018-12-16T11:02:13.039Z,170.40
2018-12-16T11:05:18.293Z,173.20
2018-12-16T11:08:23.281Z,169.97
2018-12-16T11:11:28.032Z,275.40
2018-12-16T11:14:32.877Z,213.37
2018-12-16T11:17:37.686Z,433.93
2018-12-16T11:20:42.476Z,252.23
2018-12-16T11:23:53.543Z,203.63
2018-12-16T11:26:54.438Z,211.93
2018-12-16T11:29:59.162Z,197.50
2018-12-16T11:33:03.968Z,204.17
2018-12-16T11:36:08.735Z,192.97
2018-12-16T11:39:13.513Z,134.77
2018-12-16T11:42:18.246Z,140.30
2018-12-16T11:45:22.959Z,119.00
2018-12-16T11:48:27.833Z,99.17
2018-12-16T11:51:32.633Z,99.63
2018-12-16T11:54:37.794Z,105.60
2018-12-16T11:57:42.553Z,100.20
2018-12-16T12:00:47.314Z,95.13
2018-12-16T12:03:52.186Z,100.67
2018-12-16T12:06:56.962Z,72.40
2018-12-16T12:10:01.701Z,106.13
2018-12-16T12:13:07.418Z,175.83
2018-12-16T12:16:12.165Z,181.67
2018-12-16T12:19:16.902Z,100.77
2018-12-16T12:22:21.654Z,155.93
2018-12-16T12:25:26.421Z,152.33
2018-12-16T12:28:31.181Z,141.50
2018-12-16T12:31:35.989Z,110.80
2018-12-16T12:34:40.721Z,118.27
2018-12-16T12:37:45.444Z,176.10
2018-12-16T12:40:50.213Z,176.67
2018-12-16T12:43:54.971Z,147.57
2018-12-16T12:46:59.769Z,90.90
2018-12-16T12:50:04.759Z,87.17
2018-12-16T12:53:09.932Z,73.13
2018-12-16T12:56:14.691Z,45.27
2018-12-16T12:59:19.431Z,27.80
2018-12-16T13:02:24.183Z,15.93
2018-12-16T13:05:36.865Z,12.50
2018-12-16T13:08:36.777Z,27.00
2018-12-16T13:11:41.541Z,21.57
2018-12-16T13:14:46.275Z,14.97
2018-12-16T13:17:51.019Z,20.13
2018-12-16T13:20:55.883Z,19.93
2018-12-16T13:24:00.751Z,14.90
2018-12-16T13:27:05.506Z,17.23
2018-12-16T13:30:10.481Z,24.20
2018-12-16T13:33:15.223Z,15.17
2018-12-16T13:36:19.962Z,9.87
2018-12-16T13:39:24.736Z,10.43
2018-12-16T13:42:29.466Z,13.43
2018-12-16T13:45:34.230Z,13.50
2018-12-16T13:48:38.954Z,13.60
2018-12-16T13:51:43.711Z,11.43
2018-12-16T13:54:48.454Z,12.03
2018-12-16T13:57:53.571Z,9.00
2018-12-16T14:00:58.352Z,11.53
2018-12-16T14:04:03.103Z,8.77
2018-12-16T14:07:07.869Z,11.37
2018-12-16T14:10:12.650Z,11.83
2018-12-16T14:13:17.377Z,9.50
2018-12-16T14:16:22.132Z,5.63
2018-12-16T14:19:26.925Z,12.73
2018-12-16T14:22:31.650Z,10.33
2018-12-16T14:25:36.394Z,14.30
2018-12-16T14:28:41.170Z,14.07
2018-12-16T14:31:45.918Z,11.00
2018-12-16T14:34:50.658Z,10.90
2018-12-16T14:37:55.782Z,6.27
2018-12-16T14:41:00.537Z,11.13
2018-12-16T14:44:05.273Z,5.83
2018-12-16T14:47:10.047Z,6.00
2018-12-16T14:50:14.830Z,4.80
2018-12-16T14:53:19.626Z,7.07
2018-12-16T14:56:30.922Z,6.07
2018-12-16T14:59:35.687Z,8.70
2018-12-16T15:02:40.462Z,6.83
2018-12-16T15:05:45.181Z,63.27
2018-12-16T15:08:50.049Z,23.63
2018-12-16T15:11:54.820Z,6.23
2018-12-16T15:14:59.748Z,6.77
2018-12-16T15:18:04.544Z,6.87
2018-12-16T15:21:09.261Z,8.50
2018-12-16T15:24:13.986Z,5.33
2018-12-16T15:27:18.715Z,6.10
2018-12-16T15:30:23.482Z,6.53
2018-12-16T15:33:28.394Z,26.07
2018-12-16T15:36:33.154Z,49.73
2018-12-16T15:39:37.898Z,19.17
2018-12-16T15:42:42.638Z,9.67
2018-12-16T15:45:47.566Z,10.53
2018-12-16T15:48:52.305Z,5.57
2018-12-16T15:51:57.131Z,7.27
2018-12-16T15:55:01.935Z,6.87
2018-12-16T15:58:06.819Z,7.63
2018-12-16T16:01:11.555Z,6.27
2018-12-16T16:04:16.266Z,6.87
2018-12-16T16:07:20.999Z,8.73
2018-12-16T16:10:25.805Z,8.07
2018-12-16T16:13:30.660Z,7.53
2018-12-16T16:16:35.452Z,7.40
2018-12-16T16:19:40.167Z,9.50
2018-12-16T16:22:44.984Z,10.63
2018-12-16T16:25:49.797Z,11.87
2018-12-16T16:28:54.525Z,10.50
2018-12-16T16:32:00.647Z,8.17
2018-12-16T16:35:05.982Z,6.10
2018-12-16T16:38:10.885Z,6.73
2018-12-16T16:41:15.652Z,10.23
2018-12-16T16:44:20.396Z,7.93
2018-12-16T16:47:25.165Z,6.97
2018-12-16T16:50:30.046Z,7.53
2018-12-16T16:53:34.805Z,9.47
2018-12-16T16:56:39.612Z,15.17
2018-12-16T16:59:44.370Z,9.00
2018-12-16T17:02:49.095Z,10.63
2018-12-16T17:05:53.835Z,6.87
2018-12-16T17:08:58.702Z,5.00
2018-12-16T17:12:03.503Z,6.90
2018-12-16T17:15:08.498Z,7.77
2018-12-16T17:18:13.258Z,5.50
2018-12-16T17:21:18.073Z,7.17
2018-12-16T17:24:22.868Z,8.97
2018-12-16T17:27:35.060Z,6.00
2018-12-16T17:30:40.048Z,5.73
2018-12-16T17:33:44.837Z,5.33
2018-12-16T17:36:49.657Z,7.87
2018-12-16T17:39:54.374Z,7.80
2018-12-16T17:42:59.135Z,5.27
2018-12-16T17:46:03.939Z,10.17
2018-12-16T17:49:08.680Z,8.60
2018-12-16T17:52:14.196Z,13.63
2018-12-16T17:55:18.979Z,5.23
2018-12-16T17:58:24.349Z,8.00
2018-12-16T18:01:29.062Z,10.27
2018-12-16T18:04:33.935Z,8.30
2018-12-16T18:07:38.875Z,14.37
2018-12-16T18:10:43.782Z,9.53
2018-12-16T18:13:48.672Z,9.23
2018-12-16T18:16:54.471Z,7.57
2018-12-16T18:19:59.526Z,9.23
2018-12-16T18:23:04.408Z,8.27
2018-12-16T18:26:09.166Z,10.87
2018-12-16T18:29:13.915Z,5.57
2018-12-16T18:32:18.716Z,51.87
2018-12-16T18:35:23.479Z,17.77
2018-12-16T18:38:28.390Z,11.27
2018-12-16T18:41:33.116Z,13.57
2018-12-16T18:44:37.886Z,9.80
2018-12-16T18:47:42.711Z,10.07
2018-12-16T18:50:47.549Z,14.13
2018-12-16T18:53:54.650Z,12.73
2018-12-16T18:56:59.547Z,12.43
2018-12-16T19:00:04.767Z,11.93
2018-12-16T19:03:11.570Z,19.73
2018-12-16T19:06:16.361Z,27.73
2018-12-16T19:09:21.195Z,14.53
2018-12-16T19:12:25.996Z,8.73
2018-12-16T19:15:30.797Z,43.20
2018-12-16T19:18:35.987Z,11.50
2018-12-16T19:21:40.827Z,26.70
2018-12-16T19:24:45.555Z,16.57
2018-12-16T19:27:50.434Z,8.73
2018-12-16T19:30:55.244Z,28.90
2018-12-16T19:33:59.987Z,24.17
2018-12-16T19:37:05.461Z,17.10
2018-12-16T19:40:11.987Z,13.93
2018-12-16T19:43:16.887Z,11.37
2018-12-16T19:46:21.657Z,21.07
2018-12-16T19:49:26.444Z,26.03
2018-12-16T19:52:31.202Z,26.70
2018-12-16T19:55:35.997Z,26.47
2018-12-16T19:58:41.017Z,10.50
2018-12-16T20:01:45.771Z,25.33
2018-12-16T20:05:05.165Z,26.63
2018-12-16T20:08:10.056Z,14.70
2018-12-16T20:11:14.789Z,14.17
2018-12-16T20:14:19.558Z,11.60
2018-12-16T20:17:24.303Z,14.73
2018-12-16T20:20:29.032Z,12.23
2018-12-16T20:23:33.821Z,12.50
2018-12-16T20:26:38.526Z,13.03
2018-12-16T20:29:43.225Z,13.30
2018-12-16T20:32:47.932Z,14.27
2018-12-16T20:35:52.655Z,13.83
2018-12-16T20:38:57.689Z,16.93
2018-12-16T20:42:02.429Z,13.97
2018-12-16T20:45:08.042Z,14.50
2018-12-16T20:48:12.809Z,12.77
2018-12-16T20:51:17.555Z,19.23
2018-12-16T20:54:22.299Z,16.17
2018-12-16T20:57:27.043Z,17.80
2018-12-16T21:00:31.841Z,17.30
2018-12-16T21:03:36.763Z,17.87
2018-12-16T21:06:41.481Z,28.37
2018-12-16T21:09:46.202Z,23.83
2018-12-16T21:12:56.070Z,17.77
2018-12-16T21:16:05.742Z,22.93
2018-12-16T21:19:10.558Z,20.50
2018-12-16T21:22:15.444Z,23.17
2018-12-16T21:25:20.202Z,18.50
2018-12-16T21:28:24.921Z,21.07
2018-12-16T21:31:29.827Z,23.03
2018-12-16T21:34:34.584Z,19.07
2018-12-16T21:37:39.341Z,21.53
2018-12-16T21:40:44.085Z,24.43
2018-12-16T21:43:48.954Z,61.93
2018-12-16T21:46:53.742Z,52.23
2018-12-16T21:49:58.475Z,36.13
2018-12-16T21:53:03.557Z,84.03
2018-12-16T21:56:08.450Z,39.50
2018-12-16T21:59:13.370Z,89.50
2018-12-16T22:02:18.129Z,95.37
2018-12-16T22:05:26.969Z,19.77
2018-12-16T22:08:31.705Z,23.30
2018-12-16T22:11:36.446Z,27.23
2018-12-16T22:14:41.184Z,17.23
2018-12-16T22:17:45.919Z,21.80
2018-12-16T22:20:50.915Z,36.40
2018-12-16T22:23:55.625Z,22.93
2018-12-16T22:27:00.505Z,17.53
2018-12-16T22:30:06.201Z,17.23
2018-12-16T22:33:10.998Z,13.20
2018-12-16T22:36:15.778Z,29.93
2018-12-16T22:39:20.659Z,28.67
2018-12-16T22:42:25.473Z,41.50
2018-12-16T22:45:30.229Z,23.00
2018-12-16T22:48:35.062Z,20.90
2018-12-16T22:51:39.794Z,20.23
2018-12-16T22:54:44.538Z,26.83
2018-12-16T22:57:49.344Z,21.00
2018-12-16T23:00:59.641Z,21.47
2018-12-16T23:04:04.420Z,24.67
2018-12-16T23:07:09.173Z,22.70
2018-12-16T23:10:14.081Z,18.83
2018-12-16T23:13:18.834Z,16.47
2018-12-16T23:16:23.642Z,18.20
2018-12-16T23:19:28.412Z,17.10
2018-12-16T23:22:33.192Z,16.10
2018-12-16T23:25:37.917Z,19.93
2018-12-16T23:28:42.794Z,17.30
2018-12-16T23:31:47.583Z,17.67
2018-12-16T23:34:52.333Z,17.00
2018-12-16T23:37:57.210Z,16.00
2018-12-16T23:41:01.934Z,17.37
2018-12-16T23:44:06.745Z,16.10
2018-12-16T23:47:11.464Z,17.27
2018-12-16T23:50:17.463Z,15.43
2018-12-16T23:53:22.217Z,17.80
2018-12-16T23:56:27.000Z,17.90
2018-12-16T23:59:31.739Z,22.97
